sensor_id;sensor_type;location;lat;lon;timestamp;P1;durP1;ratioP1;P2;durP2;ratioP2
68234;SDS011;55052;52.056;5.296;2023-06-05T00:00:27;6.65;;;3.50;;
68234;SDS011;55052;52.056;5.296;2023-06-05T00:02:54;7.05;;;3.90;;
68234;SDS011;55052;52.056;5.296;2023-06-05T00:05:21;6.82;;;3.58;;
68234;SDS011;55052;52.056;5.296;2023-06-05T00:10:18;5.63;;;3.55;;
68234;SDS011;55052;52.056;5.296;2023-06-05T00:12:45;7.80;;;3.40;;
68234;SDS011;55052;52.056;5.296;2023-06-05T00:15:12;7.30;;;3.88;;
68234;SDS011;55052;52.056;5.296;2023-06-05T00:17:39;9.95;;;4.10;;
68234;SDS011;55052;52.056;5.296;2023-06-05T00:20:06;8.50;;;3.92;;
68234;SDS011;55052;52.056;5.296;2023-06-05T00:25:04;9.70;;;3.85;;
68234;SDS011;55052;52.056;5.296;2023-06-05T00:27:32;8.10;;;3.83;;
68234;SDS011;55052;52.056;5.296;2023-06-05T00:29:59;7.05;;;3.95;;
68234;SDS011;55052;52.056;5.296;2023-06-05T00:32:25;7.05;;;3.90;;
68234;SDS011;55052;52.056;5.296;2023-06-05T00:34:52;8.40;;;3.88;;
68234;SDS011;55052;52.056;5.296;2023-06-05T00:37:19;6.75;;;4.05;;
68234;SDS011;55052;52.056;5.296;2023-06-05T00:39:46;8.20;;;4.15;;
68234;SDS011;55052;52.056;5.296;2023-06-05T00:42:13;7.78;;;4.22;;
68234;SDS011;55052;52.056;5.296;2023-06-05T00:44:40;8.20;;;4.10;;
68234;SDS011;55052;52.056;5.296;2023-06-05T00:47:07;7.57;;;3.90;;
68234;SDS011;55052;52.056;5.296;2023-06-05T00:49:34;10.30;;;4.00;;
68234;SDS011;55052;52.056;5.296;2023-06-05T00:52:01;9.02;;;4.45;;
68234;SDS011;55052;52.056;5.296;2023-06-05T00:54:28;10.82;;;4.40;;
68234;SDS011;55052;52.056;5.296;2023-06-05T00:56:56;8.50;;;4.25;;
68234;SDS011;55052;52.056;5.296;2023-06-05T00:59:23;8.50;;;3.95;;
68234;SDS011;55052;52.056;5.296;2023-06-05T01:01:50;10.40;;;4.70;;
68234;SDS011;55052;52.056;5.296;2023-06-05T01:04:20;7.95;;;4.10;;
68234;SDS011;55052;52.056;5.296;2023-06-05T01:06:49;8.40;;;4.30;;
68234;SDS011;55052;52.056;5.296;2023-06-05T01:09:17;9.70;;;4.50;;
68234;SDS011;55052;52.056;5.296;2023-06-05T01:11:50;7.63;;;4.22;;
68234;SDS011;55052;52.056;5.296;2023-06-05T01:14:35;6.68;;;4.18;;
68234;SDS011;55052;52.056;5.296;2023-06-05T01:17:04;7.47;;;4.32;;
68234;SDS011;55052;52.056;5.296;2023-06-05T01:19:34;8.52;;;4.53;;
68234;SDS011;55052;52.056;5.296;2023-06-05T01:22:02;7.70;;;4.65;;
68234;SDS011;55052;52.056;5.296;2023-06-05T01:24:29;7.63;;;4.72;;
68234;SDS011;55052;52.056;5.296;2023-06-05T01:30:12;7.90;;;4.55;;
68234;SDS011;55052;52.056;5.296;2023-06-05T01:35:52;7.97;;;4.75;;
68234;SDS011;55052;52.056;5.296;2023-06-05T01:38:19;8.63;;;4.45;;
68234;SDS011;55052;52.056;5.296;2023-06-05T01:40:48;7.70;;;4.35;;
68234;SDS011;55052;52.056;5.296;2023-06-05T01:43:17;7.28;;;4.30;;
68234;SDS011;55052;52.056;5.296;2023-06-05T01:45:44;9.88;;;4.80;;
68234;SDS011;55052;52.056;5.296;2023-06-05T01:48:11;9.68;;;4.80;;
68234;SDS011;55052;52.056;5.296;2023-06-05T01:50:39;8.52;;;5.22;;
68234;SDS011;55052;52.056;5.296;2023-06-05T01:53:10;10.88;;;4.63;;
68234;SDS011;55052;52.056;5.296;2023-06-05T01:55:38;9.63;;;5.18;;
68234;SDS011;55052;52.056;5.296;2023-06-05T01:58:07;8.95;;;5.07;;
68234;SDS011;55052;52.056;5.296;2023-06-05T02:00:33;9.38;;;4.20;;
68234;SDS011;55052;52.056;5.296;2023-06-05T02:03:03;11.48;;;5.15;;
68234;SDS011;55052;52.056;5.296;2023-06-05T02:05:30;7.68;;;4.88;;
68234;SDS011;55052;52.056;5.296;2023-06-05T02:07:58;8.45;;;4.70;;
68234;SDS011;55052;52.056;5.296;2023-06-05T02:10:24;7.25;;;4.57;;
68234;SDS011;55052;52.056;5.296;2023-06-05T02:12:51;8.60;;;5.05;;
68234;SDS011;55052;52.056;5.296;2023-06-05T02:15:18;10.85;;;5.10;;
68234;SDS011;55052;52.056;5.296;2023-06-05T02:17:45;8.55;;;4.88;;
68234;SDS011;55052;52.056;5.296;2023-06-05T02:20:17;9.57;;;5.38;;
68234;SDS011;55052;52.056;5.296;2023-06-05T02:22:44;8.02;;;5.40;;
68234;SDS011;55052;52.056;5.296;2023-06-05T02:25:11;8.27;;;5.03;;
68234;SDS011;55052;52.056;5.296;2023-06-05T02:27:38;8.48;;;4.68;;
68234;SDS011;55052;52.056;5.296;2023-06-05T02:30:06;11.98;;;5.53;;
68234;SDS011;55052;52.056;5.296;2023-06-05T02:32:34;8.27;;;5.13;;
68234;SDS011;55052;52.056;5.296;2023-06-05T02:35:02;9.02;;;5.00;;
68234;SDS011;55052;52.056;5.296;2023-06-05T02:37:31;10.13;;;5.43;;
68234;SDS011;55052;52.056;5.296;2023-06-05T02:40:03;11.27;;;5.68;;
68234;SDS011;55052;52.056;5.296;2023-06-05T02:42:32;10.90;;;5.20;;
68234;SDS011;55052;52.056;5.296;2023-06-05T02:44:58;7.68;;;4.57;;
68234;SDS011;55052;52.056;5.296;2023-06-05T02:47:25;8.73;;;4.93;;
68234;SDS011;55052;52.056;5.296;2023-06-05T02:49:52;9.07;;;5.25;;
68234;SDS011;55052;52.056;5.296;2023-06-05T02:52:19;8.93;;;5.18;;
68234;SDS011;55052;52.056;5.296;2023-06-05T02:54:46;8.98;;;5.20;;
68234;SDS011;55052;52.056;5.296;2023-06-05T02:57:13;9.15;;;5.57;;
68234;SDS011;55052;52.056;5.296;2023-06-05T02:59:41;9.07;;;5.10;;
68234;SDS011;55052;52.056;5.296;2023-06-05T03:02:08;8.63;;;5.57;;
68234;SDS011;55052;52.056;5.296;2023-06-05T03:04:36;9.60;;;5.40;;
68234;SDS011;55052;52.056;5.296;2023-06-05T03:07:05;10.25;;;5.53;;
68234;SDS011;55052;52.056;5.296;2023-06-05T03:09:34;8.38;;;5.05;;
68234;SDS011;55052;52.056;5.296;2023-06-05T03:12:02;9.07;;;5.22;;
68234;SDS011;55052;52.056;5.296;2023-06-05T03:14:29;11.02;;;5.93;;
68234;SDS011;55052;52.056;5.296;2023-06-05T03:16:57;10.25;;;4.93;;
68234;SDS011;55052;52.056;5.296;2023-06-05T03:19:24;14.25;;;5.70;;
68234;SDS011;55052;52.056;5.296;2023-06-05T03:21:53;9.73;;;5.07;;
68234;SDS011;55052;52.056;5.296;2023-06-05T03:24:20;8.55;;;5.20;;
68234;SDS011;55052;52.056;5.296;2023-06-05T03:26:50;10.65;;;5.43;;
68234;SDS011;55052;52.056;5.296;2023-06-05T03:29:17;10.40;;;5.60;;
68234;SDS011;55052;52.056;5.296;2023-06-05T03:31:44;10.35;;;5.32;;
68234;SDS011;55052;52.056;5.296;2023-06-05T03:34:11;11.98;;;6.10;;
68234;SDS011;55052;52.056;5.296;2023-06-05T03:36:38;11.65;;;5.70;;
68234;SDS011;55052;52.056;5.296;2023-06-05T03:39:06;9.63;;;5.72;;
68234;SDS011;55052;52.056;5.296;2023-06-05T03:41:33;9.60;;;5.45;;
68234;SDS011;55052;52.056;5.296;2023-06-05T03:44:00;7.97;;;5.43;;
68234;SDS011;55052;52.056;5.296;2023-06-05T03:46:29;11.75;;;5.70;;
68234;SDS011;55052;52.056;5.296;2023-06-05T03:48:57;10.65;;;5.88;;
68234;SDS011;55052;52.056;5.296;2023-06-05T03:51:31;8.77;;;5.68;;
68234;SDS011;55052;52.056;5.296;2023-06-05T03:53:59;10.27;;;6.40;;
68234;SDS011;55052;52.056;5.296;2023-06-05T03:56:26;9.63;;;5.82;;
68234;SDS011;55052;52.056;5.296;2023-06-05T03:59:00;13.40;;;6.20;;
68234;SDS011;55052;52.056;5.296;2023-06-05T04:01:35;12.32;;;5.65;;
68234;SDS011;55052;52.056;5.296;2023-06-05T04:04:05;10.60;;;5.88;;
68234;SDS011;55052;52.056;5.296;2023-06-05T04:06:34;8.55;;;5.68;;
68234;SDS011;55052;52.056;5.296;2023-06-05T04:09:03;14.13;;;6.25;;
68234;SDS011;55052;52.056;5.296;2023-06-05T04:11:38;11.27;;;5.93;;
68234;SDS011;55052;52.056;5.296;2023-06-05T04:14:06;11.52;;;6.22;;
68234;SDS011;55052;52.056;5.296;2023-06-05T04:16:34;9.85;;;6.10;;
68234;SDS011;55052;52.056;5.296;2023-06-05T04:19:06;11.38;;;6.03;;
68234;SDS011;55052;52.056;5.296;2023-06-05T04:21:33;12.05;;;6.22;;
68234;SDS011;55052;52.056;5.296;2023-06-05T04:24:07;11.70;;;6.47;;
68234;SDS011;55052;52.056;5.296;2023-06-05T04:26:37;11.45;;;6.20;;
68234;SDS011;55052;52.056;5.296;2023-06-05T04:29:05;12.40;;;6.40;;
68234;SDS011;55052;52.056;5.296;2023-06-05T04:31:45;11.65;;;6.30;;
68234;SDS011;55052;52.056;5.296;2023-06-05T04:34:14;10.82;;;6.40;;
68234;SDS011;55052;52.056;5.296;2023-06-05T04:36:41;10.75;;;6.00;;
68234;SDS011;55052;52.056;5.296;2023-06-05T04:39:08;13.65;;;6.45;;
68234;SDS011;55052;52.056;5.296;2023-06-05T04:41:44;9.40;;;6.18;;
68234;SDS011;55052;52.056;5.296;2023-06-05T04:44:17;13.00;;;6.78;;
68234;SDS011;55052;52.056;5.296;2023-06-05T04:46:45;10.68;;;6.45;;
68234;SDS011;55052;52.056;5.296;2023-06-05T04:49:13;12.63;;;6.57;;
68234;SDS011;55052;52.056;5.296;2023-06-05T04:51:41;10.98;;;6.30;;
68234;SDS011;55052;52.056;5.296;2023-06-05T04:54:10;10.32;;;6.68;;
68234;SDS011;55052;52.056;5.296;2023-06-05T04:56:36;9.65;;;5.88;;
68234;SDS011;55052;52.056;5.296;2023-06-05T04:59:04;11.00;;;6.38;;
68234;SDS011;55052;52.056;5.296;2023-06-05T05:01:31;9.85;;;5.95;;
68234;SDS011;55052;52.056;5.296;2023-06-05T05:03:59;13.07;;;6.45;;
68234;SDS011;55052;52.056;5.296;2023-06-05T05:06:26;8.85;;;6.00;;
68234;SDS011;55052;52.056;5.296;2023-06-05T05:08:53;12.27;;;6.60;;
68234;SDS011;55052;52.056;5.296;2023-06-05T05:11:20;12.65;;;6.60;;
68234;SDS011;55052;52.056;5.296;2023-06-05T05:13:47;9.75;;;6.03;;
68234;SDS011;55052;52.056;5.296;2023-06-05T05:16:13;10.90;;;6.15;;
68234;SDS011;55052;52.056;5.296;2023-06-05T05:18:43;10.32;;;6.00;;
68234;SDS011;55052;52.056;5.296;2023-06-05T05:21:10;8.73;;;5.70;;
68234;SDS011;55052;52.056;5.296;2023-06-05T05:23:37;10.88;;;5.97;;
68234;SDS011;55052;52.056;5.296;2023-06-05T05:26:04;11.77;;;6.35;;
68234;SDS011;55052;52.056;5.296;2023-06-05T05:28:31;11.05;;;5.65;;
68234;SDS011;55052;52.056;5.296;2023-06-05T05:30:58;14.93;;;6.28;;
68234;SDS011;55052;52.056;5.296;2023-06-05T05:33:26;12.25;;;6.22;;
68234;SDS011;55052;52.056;5.296;2023-06-05T05:35:53;11.32;;;6.13;;
68234;SDS011;55052;52.056;5.296;2023-06-05T05:38:20;10.10;;;6.05;;
68234;SDS011;55052;52.056;5.296;2023-06-05T05:40:47;11.88;;;6.32;;
68234;SDS011;55052;52.056;5.296;2023-06-05T05:43:17;10.75;;;6.82;;
68234;SDS011;55052;52.056;5.296;2023-06-05T05:45:44;10.77;;;6.88;;
68234;SDS011;55052;52.056;5.296;2023-06-05T05:48:11;11.70;;;6.25;;
68234;SDS011;55052;52.056;5.296;2023-06-05T05:50:39;12.73;;;6.45;;
68234;SDS011;55052;52.056;5.296;2023-06-05T05:53:07;10.98;;;6.30;;
68234;SDS011;55052;52.056;5.296;2023-06-05T05:55:33;10.95;;;6.00;;
68234;SDS011;55052;52.056;5.296;2023-06-05T05:58:00;11.35;;;6.28;;
68234;SDS011;55052;52.056;5.296;2023-06-05T06:00:27;13.68;;;7.00;;
68234;SDS011;55052;52.056;5.296;2023-06-05T06:02:54;11.55;;;6.55;;
68234;SDS011;55052;52.056;5.296;2023-06-05T06:05:22;13.48;;;6.78;;
68234;SDS011;55052;52.056;5.296;2023-06-05T06:07:48;11.68;;;5.97;;
68234;SDS011;55052;52.056;5.296;2023-06-05T06:10:15;10.75;;;6.70;;
68234;SDS011;55052;52.056;5.296;2023-06-05T06:12:43;12.27;;;6.47;;
68234;SDS011;55052;52.056;5.296;2023-06-05T06:15:11;11.25;;;6.70;;
68234;SDS011;55052;52.056;5.296;2023-06-05T06:17:38;11.13;;;6.90;;
68234;SDS011;55052;52.056;5.296;2023-06-05T06:20:05;10.88;;;6.47;;
68234;SDS011;55052;52.056;5.296;2023-06-05T06:22:33;9.93;;;6.20;;
68234;SDS011;55052;52.056;5.296;2023-06-05T06:25:00;13.57;;;6.60;;
68234;SDS011;55052;52.056;5.296;2023-06-05T06:27:27;12.43;;;6.15;;
68234;SDS011;55052;52.056;5.296;2023-06-05T06:30:00;11.82;;;6.95;;
68234;SDS011;55052;52.056;5.296;2023-06-05T06:32:28;10.20;;;6.18;;
68234;SDS011;55052;52.056;5.296;2023-06-05T06:34:55;11.20;;;6.35;;
68234;SDS011;55052;52.056;5.296;2023-06-05T06:37:23;10.77;;;6.55;;
68234;SDS011;55052;52.056;5.296;2023-06-05T06:39:50;11.30;;;6.55;;
68234;SDS011;55052;52.056;5.296;2023-06-05T06:42:17;12.10;;;6.35;;
68234;SDS011;55052;52.056;5.296;2023-06-05T06:44:44;10.52;;;6.55;;
68234;SDS011;55052;52.056;5.296;2023-06-05T06:47:11;16.10;;;7.05;;
68234;SDS011;55052;52.056;5.296;2023-06-05T06:49:38;13.27;;;6.82;;
68234;SDS011;55052;52.056;5.296;2023-06-05T06:52:08;11.55;;;7.07;;
68234;SDS011;55052;52.056;5.296;2023-06-05T06:54:35;10.57;;;6.53;;
68234;SDS011;55052;52.056;5.296;2023-06-05T06:57:04;10.20;;;6.30;;
68234;SDS011;55052;52.056;5.296;2023-06-05T06:59:31;10.52;;;6.78;;
68234;SDS011;55052;52.056;5.296;2023-06-05T07:02:08;11.23;;;6.63;;
68234;SDS011;55052;52.056;5.296;2023-06-05T07:04:37;9.90;;;6.13;;
68234;SDS011;55052;52.056;5.296;2023-06-05T07:07:05;13.25;;;6.50;;
68234;SDS011;55052;52.056;5.296;2023-06-05T07:09:32;11.02;;;6.65;;
68234;SDS011;55052;52.056;5.296;2023-06-05T07:11:59;12.52;;;6.72;;
68234;SDS011;55052;52.056;5.296;2023-06-05T07:14:31;11.00;;;6.93;;
68234;SDS011;55052;52.056;5.296;2023-06-05T07:17:01;11.23;;;6.47;;
68234;SDS011;55052;52.056;5.296;2023-06-05T07:19:30;11.95;;;6.68;;
68234;SDS011;55052;52.056;5.296;2023-06-05T07:21:58;12.82;;;6.93;;
68234;SDS011;55052;52.056;5.296;2023-06-05T07:24:26;15.50;;;6.82;;
68234;SDS011;55052;52.056;5.296;2023-06-05T07:26:55;15.77;;;6.80;;
68234;SDS011;55052;52.056;5.296;2023-06-05T07:29:23;10.05;;;6.32;;
68234;SDS011;55052;52.056;5.296;2023-06-05T07:31:52;10.75;;;6.40;;
68234;SDS011;55052;52.056;5.296;2023-06-05T07:34:21;13.90;;;6.80;;
68234;SDS011;55052;52.056;5.296;2023-06-05T07:36:49;12.20;;;6.22;;
68234;SDS011;55052;52.056;5.296;2023-06-05T07:39:18;12.15;;;6.72;;
68234;SDS011;55052;52.056;5.296;2023-06-05T07:41:46;9.55;;;6.32;;
68234;SDS011;55052;52.056;5.296;2023-06-05T07:44:14;12.85;;;6.53;;
68234;SDS011;55052;52.056;5.296;2023-06-05T07:46:43;13.10;;;6.27;;
68234;SDS011;55052;52.056;5.296;2023-06-05T07:49:11;10.35;;;6.00;;
68234;SDS011;55052;52.056;5.296;2023-06-05T07:51:38;10.20;;;5.88;;
68234;SDS011;55052;52.056;5.296;2023-06-05T07:54:06;12.05;;;5.97;;
68234;SDS011;55052;52.056;5.296;2023-06-05T07:56:34;10.65;;;5.85;;
68234;SDS011;55052;52.056;5.296;2023-06-05T07:59:02;10.10;;;5.60;;
68234;SDS011;55052;52.056;5.296;2023-06-05T08:01:29;10.73;;;6.15;;
68234;SDS011;55052;52.056;5.296;2023-06-05T08:03:57;10.52;;;5.90;;
68234;SDS011;55052;52.056;5.296;2023-06-05T08:06:24;9.65;;;5.57;;
68234;SDS011;55052;52.056;5.296;2023-06-05T08:08:51;13.93;;;5.90;;
68234;SDS011;55052;52.056;5.296;2023-06-05T08:11:18;9.00;;;5.60;;
68234;SDS011;55052;52.056;5.296;2023-06-05T08:13:45;10.57;;;5.68;;
68234;SDS011;55052;52.056;5.296;2023-06-05T08:16:11;10.55;;;5.47;;
68234;SDS011;55052;52.056;5.296;2023-06-05T08:18:39;9.13;;;5.50;;
68234;SDS011;55052;52.056;5.296;2023-06-05T08:21:05;8.55;;;5.63;;
68234;SDS011;55052;52.056;5.296;2023-06-05T08:23:33;9.80;;;6.65;;
68234;SDS011;55052;52.056;5.296;2023-06-05T08:26:01;9.55;;;5.40;;
68234;SDS011;55052;52.056;5.296;2023-06-05T08:28:39;9.27;;;5.50;;
68234;SDS011;55052;52.056;5.296;2023-06-05T08:31:07;9.68;;;5.90;;
68234;SDS011;55052;52.056;5.296;2023-06-05T08:33:36;8.70;;;5.40;;
68234;SDS011;55052;52.056;5.296;2023-06-05T08:36:04;8.75;;;5.72;;
68234;SDS011;55052;52.056;5.296;2023-06-05T08:41:07;10.25;;;5.55;;
68234;SDS011;55052;52.056;5.296;2023-06-05T08:46:05;9.48;;;5.55;;
68234;SDS011;55052;52.056;5.296;2023-06-05T08:48:33;9.05;;;5.22;;
68234;SDS011;55052;52.056;5.296;2023-06-05T08:51:07;8.52;;;5.20;;
68234;SDS011;55052;52.056;5.296;2023-06-05T08:53:38;9.55;;;6.13;;
68234;SDS011;55052;52.056;5.296;2023-06-05T08:56:06;8.80;;;5.18;;
68234;SDS011;55052;52.056;5.296;2023-06-05T08:58:36;8.48;;;5.30;;
68234;SDS011;55052;52.056;5.296;2023-06-05T09:01:03;10.32;;;6.00;;
68234;SDS011;55052;52.056;5.296;2023-06-05T09:03:32;10.70;;;6.22;;
68234;SDS011;55052;52.056;5.296;2023-06-05T09:05:59;10.77;;;6.03;;
68234;SDS011;55052;52.056;5.296;2023-06-05T09:08:29;12.68;;;5.85;;
68234;SDS011;55052;52.056;5.296;2023-06-05T09:11:21;11.95;;;6.28;;
68234;SDS011;55052;52.056;5.296;2023-06-05T09:13:55;10.68;;;6.70;;
68234;SDS011;55052;52.056;5.296;2023-06-05T09:19:00;9.15;;;5.82;;
68234;SDS011;55052;52.056;5.296;2023-06-05T09:21:28;9.38;;;6.38;;
68234;SDS011;55052;52.056;5.296;2023-06-05T09:29:24;9.75;;;5.00;;
68234;SDS011;55052;52.056;5.296;2023-06-05T09:31:51;10.50;;;5.32;;
68234;SDS011;55052;52.056;5.296;2023-06-05T09:34:20;10.05;;;5.65;;
68234;SDS011;55052;52.056;5.296;2023-06-05T09:36:48;9.73;;;5.65;;
68234;SDS011;55052;52.056;5.296;2023-06-05T09:39:15;9.82;;;5.85;;
68234;SDS011;55052;52.056;5.296;2023-06-05T09:41:43;8.13;;;4.78;;
68234;SDS011;55052;52.056;5.296;2023-06-05T09:44:11;8.25;;;4.90;;
68234;SDS011;55052;52.056;5.296;2023-06-05T09:49:30;8.27;;;4.38;;
68234;SDS011;55052;52.056;5.296;2023-06-05T09:51:59;12.38;;;5.53;;
68234;SDS011;55052;52.056;5.296;2023-06-05T09:54:28;8.85;;;5.13;;
68234;SDS011;55052;52.056;5.296;2023-06-05T09:56:57;13.18;;;5.32;;
68234;SDS011;55052;52.056;5.296;2023-06-05T09:59:29;8.25;;;4.90;;
68234;SDS011;55052;52.056;5.296;2023-06-05T10:02:02;8.70;;;4.95;;
68234;SDS011;55052;52.056;5.296;2023-06-05T10:04:32;8.75;;;4.43;;
68234;SDS011;55052;52.056;5.296;2023-06-05T10:07:12;7.65;;;5.03;;
68234;SDS011;55052;52.056;5.296;2023-06-05T10:09:39;7.95;;;5.10;;
68234;SDS011;55052;52.056;5.296;2023-06-05T10:12:07;7.72;;;4.50;;
68234;SDS011;55052;52.056;5.296;2023-06-05T10:14:36;8.30;;;4.88;;
68234;SDS011;55052;52.056;5.296;2023-06-05T10:17:06;7.20;;;4.43;;
68234;SDS011;55052;52.056;5.296;2023-06-05T10:19:33;11.00;;;5.10;;
68234;SDS011;55052;52.056;5.296;2023-06-05T10:22:01;6.93;;;4.22;;
68234;SDS011;55052;52.056;5.296;2023-06-05T10:24:30;9.07;;;4.13;;
68234;SDS011;55052;52.056;5.296;2023-06-05T10:40:15;5.90;;;3.53;;
68234;SDS011;55052;52.056;5.296;2023-06-05T10:42:43;7.80;;;4.45;;
68234;SDS011;55052;52.056;5.296;2023-06-05T10:45:10;6.57;;;4.07;;
68234;SDS011;55052;52.056;5.296;2023-06-05T10:52:43;7.55;;;4.60;;
68234;SDS011;55052;52.056;5.296;2023-06-05T10:55:11;7.00;;;3.83;;
68234;SDS011;55052;52.056;5.296;2023-06-05T11:00:28;6.30;;;3.45;;
68234;SDS011;55052;52.056;5.296;2023-06-05T11:02:55;8.55;;;3.70;;
68234;SDS011;55052;52.056;5.296;2023-06-05T11:05:27;9.15;;;3.63;;
68234;SDS011;55052;52.056;5.296;2023-06-05T11:13:51;7.85;;;4.18;;
68234;SDS011;55052;52.056;5.296;2023-06-05T11:22:29;7.50;;;4.78;;
68234;SDS011;55052;52.056;5.296;2023-06-05T11:24:40;8.10;;;4.68;;
68234;SDS011;55052;52.056;5.296;2023-06-05T11:27:40;9.15;;;4.53;;
68234;SDS011;55052;52.056;5.296;2023-06-05T11:30:14;7.85;;;5.07;;
68234;SDS011;55052;52.056;5.296;2023-06-05T11:32:56;7.50;;;4.80;;
68234;SDS011;55052;52.056;5.296;2023-06-05T11:35:25;8.73;;;4.95;;
68234;SDS011;55052;52.056;5.296;2023-06-05T11:40:48;8.50;;;4.15;;
68234;SDS011;55052;52.056;5.296;2023-06-05T11:43:15;9.63;;;4.50;;
68234;SDS011;55052;52.056;5.296;2023-06-05T11:45:48;8.30;;;4.80;;
68234;SDS011;55052;52.056;5.296;2023-06-05T11:48:21;8.20;;;4.18;;
68234;SDS011;55052;52.056;5.296;2023-06-05T11:53:29;7.25;;;4.22;;
68234;SDS011;55052;52.056;5.296;2023-06-05T11:55:57;7.88;;;4.47;;
68234;SDS011;55052;52.056;5.296;2023-06-05T11:58:31;11.25;;;4.47;;
68234;SDS011;55052;52.056;5.296;2023-06-05T12:01:04;8.85;;;4.70;;
68234;SDS011;55052;52.056;5.296;2023-06-05T12:03:49;7.38;;;4.25;;
68234;SDS011;55052;52.056;5.296;2023-06-05T12:06:31;7.43;;;3.83;;
68234;SDS011;55052;52.056;5.296;2023-06-05T12:09:12;7.00;;;3.95;;
68234;SDS011;55052;52.056;5.296;2023-06-05T12:11:41;7.35;;;4.22;;
68234;SDS011;55052;52.056;5.296;2023-06-05T12:14:12;11.00;;;4.63;;
68234;SDS011;55052;52.056;5.296;2023-06-05T12:16:40;6.93;;;3.72;;
68234;SDS011;55052;52.056;5.296;2023-06-05T12:19:12;8.43;;;3.92;;
68234;SDS011;55052;52.056;5.296;2023-06-05T12:21:44;6.30;;;3.67;;
68234;SDS011;55052;52.056;5.296;2023-06-05T12:24:13;6.05;;;4.15;;
68234;SDS011;55052;52.056;5.296;2023-06-05T12:31:49;7.03;;;3.70;;
68234;SDS011;55052;52.056;5.296;2023-06-05T12:34:16;7.53;;;3.88;;
68234;SDS011;55052;52.056;5.296;2023-06-05T12:36:44;7.65;;;4.05;;
68234;SDS011;55052;52.056;5.296;2023-06-05T12:39:13;7.72;;;4.13;;
68234;SDS011;55052;52.056;5.296;2023-06-05T12:41:42;5.43;;;3.47;;
68234;SDS011;55052;52.056;5.296;2023-06-05T12:44:10;8.32;;;4.57;;
68234;SDS011;55052;52.056;5.296;2023-06-05T12:46:37;8.18;;;3.45;;
68234;SDS011;55052;52.056;5.296;2023-06-05T12:49:04;6.82;;;4.50;;
68234;SDS011;55052;52.056;5.296;2023-06-05T12:51:32;11.98;;;4.45;;
68234;SDS011;55052;52.056;5.296;2023-06-05T12:53:59;8.43;;;4.45;;
68234;SDS011;55052;52.056;5.296;2023-06-05T12:56:26;8.57;;;4.20;;
68234;SDS011;55052;52.056;5.296;2023-06-05T12:58:55;20.70;;;5.40;;
68234;SDS011;55052;52.056;5.296;2023-06-05T13:01:23;7.65;;;4.85;;
68234;SDS011;55052;52.056;5.296;2023-06-05T13:03:51;7.57;;;4.05;;
68234;SDS011;55052;52.056;5.296;2023-06-05T13:06:19;10.48;;;4.88;;
68234;SDS011;55052;52.056;5.296;2023-06-05T13:08:46;7.95;;;4.50;;
68234;SDS011;55052;52.056;5.296;2023-06-05T13:11:14;6.90;;;4.90;;
68234;SDS011;55052;52.056;5.296;2023-06-05T13:13:41;8.50;;;4.80;;
68234;SDS011;55052;52.056;5.296;2023-06-05T13:16:09;8.75;;;4.72;;
68234;SDS011;55052;52.056;5.296;2023-06-05T13:18:37;9.85;;;4.97;;
68234;SDS011;55052;52.056;5.296;2023-06-05T13:21:04;7.70;;;4.20;;
68234;SDS011;55052;52.056;5.296;2023-06-05T13:23:31;8.80;;;5.20;;
68234;SDS011;55052;52.056;5.296;2023-06-05T13:25:59;7.90;;;4.80;;
68234;SDS011;55052;52.056;5.296;2023-06-05T13:28:26;12.40;;;4.90;;
68234;SDS011;55052;52.056;5.296;2023-06-05T13:30:54;7.53;;;4.25;;
68234;SDS011;55052;52.056;5.296;2023-06-05T13:33:22;10.10;;;4.80;;
68234;SDS011;55052;52.056;5.296;2023-06-05T13:35:51;6.88;;;4.40;;
68234;SDS011;55052;52.056;5.296;2023-06-05T13:38:19;9.93;;;4.53;;
68234;SDS011;55052;52.056;5.296;2023-06-05T13:40:49;8.10;;;4.20;;
68234;SDS011;55052;52.056;5.296;2023-06-05T13:43:18;10.20;;;4.43;;
68234;SDS011;55052;52.056;5.296;2023-06-05T13:45:45;7.32;;;4.18;;
68234;SDS011;55052;52.056;5.296;2023-06-05T13:48:12;8.82;;;4.50;;
68234;SDS011;55052;52.056;5.296;2023-06-05T13:50:39;6.90;;;4.47;;
68234;SDS011;55052;52.056;5.296;2023-06-05T13:53:07;9.35;;;4.82;;
68234;SDS011;55052;52.056;5.296;2023-06-05T13:55:34;6.10;;;4.43;;
68234;SDS011;55052;52.056;5.296;2023-06-05T13:58:02;7.85;;;4.15;;
68234;SDS011;55052;52.056;5.296;2023-06-05T14:00:30;10.52;;;5.22;;
68234;SDS011;55052;52.056;5.296;2023-06-05T14:02:57;6.60;;;4.10;;
68234;SDS011;55052;52.056;5.296;2023-06-05T14:05:25;7.47;;;4.10;;
68234;SDS011;55052;52.056;5.296;2023-06-05T14:07:52;6.45;;;4.20;;
68234;SDS011;55052;52.056;5.296;2023-06-05T14:10:20;7.40;;;4.07;;
68234;SDS011;55052;52.056;5.296;2023-06-05T14:12:48;8.48;;;4.07;;
68234;SDS011;55052;52.056;5.296;2023-06-05T14:15:17;7.75;;;5.20;;
68234;SDS011;55052;52.056;5.296;2023-06-05T14:17:45;9.25;;;5.00;;
68234;SDS011;55052;52.056;5.296;2023-06-05T14:20:14;6.93;;;4.63;;
68234;SDS011;55052;52.056;5.296;2023-06-05T14:22:41;7.68;;;4.35;;
68234;SDS011;55052;52.056;5.296;2023-06-05T14:25:09;8.27;;;4.25;;
68234;SDS011;55052;52.056;5.296;2023-06-05T14:27:38;8.20;;;4.45;;
68234;SDS011;55052;52.056;5.296;2023-06-05T14:30:05;7.28;;;4.60;;
68234;SDS011;55052;52.056;5.296;2023-06-05T14:32:34;7.43;;;4.03;;
68234;SDS011;55052;52.056;5.296;2023-06-05T14:35:02;8.02;;;4.70;;
68234;SDS011;55052;52.056;5.296;2023-06-05T14:37:29;7.30;;;4.30;;
68234;SDS011;55052;52.056;5.296;2023-06-05T14:39:56;7.30;;;4.88;;
68234;SDS011;55052;52.056;5.296;2023-06-05T14:42:23;7.47;;;4.38;;
68234;SDS011;55052;52.056;5.296;2023-06-05T14:44:50;7.30;;;4.32;;
68234;SDS011;55052;52.056;5.296;2023-06-05T14:47:17;10.15;;;4.35;;
68234;SDS011;55052;52.056;5.296;2023-06-05T14:49:43;9.57;;;3.97;;
68234;SDS011;55052;52.056;5.296;2023-06-05T14:52:11;8.63;;;4.85;;
68234;SDS011;55052;52.056;5.296;2023-06-05T14:54:37;7.75;;;4.40;;
68234;SDS011;55052;52.056;5.296;2023-06-05T14:57:10;8.48;;;4.50;;
68234;SDS011;55052;52.056;5.296;2023-06-05T14:59:36;8.27;;;4.13;;
68234;SDS011;55052;52.056;5.296;2023-06-05T15:02:03;7.60;;;4.38;;
68234;SDS011;55052;52.056;5.296;2023-06-05T15:04:31;7.05;;;4.45;;
68234;SDS011;55052;52.056;5.296;2023-06-05T15:06:58;10.25;;;4.38;;
68234;SDS011;55052;52.056;5.296;2023-06-05T15:09:26;6.95;;;4.32;;
68234;SDS011;55052;52.056;5.296;2023-06-05T15:11:52;7.07;;;4.40;;
68234;SDS011;55052;52.056;5.296;2023-06-05T15:14:21;7.00;;;4.03;;
68234;SDS011;55052;52.056;5.296;2023-06-05T15:16:50;7.57;;;4.18;;
68234;SDS011;55052;52.056;5.296;2023-06-05T15:19:17;7.50;;;4.53;;
68234;SDS011;55052;52.056;5.296;2023-06-05T15:21:44;8.98;;;4.50;;
68234;SDS011;55052;52.056;5.296;2023-06-05T15:24:11;8.68;;;4.68;;
68234;SDS011;55052;52.056;5.296;2023-06-05T15:26:38;8.70;;;4.75;;
68234;SDS011;55052;52.056;5.296;2023-06-05T15:29:05;8.45;;;4.78;;
68234;SDS011;55052;52.056;5.296;2023-06-05T15:31:32;7.82;;;4.30;;
68234;SDS011;55052;52.056;5.296;2023-06-05T15:33:58;8.05;;;4.28;;
68234;SDS011;55052;52.056;5.296;2023-06-05T15:36:26;7.80;;;4.30;;
68234;SDS011;55052;52.056;5.296;2023-06-05T15:38:53;6.68;;;4.28;;
68234;SDS011;55052;52.056;5.296;2023-06-05T15:41:21;8.20;;;4.75;;
68234;SDS011;55052;52.056;5.296;2023-06-05T15:43:49;7.30;;;4.43;;
68234;SDS011;55052;52.056;5.296;2023-06-05T15:46:16;7.00;;;4.50;;
68234;SDS011;55052;52.056;5.296;2023-06-05T15:48:43;8.95;;;4.43;;
68234;SDS011;55052;52.056;5.296;2023-06-05T15:51:09;7.18;;;4.22;;
68234;SDS011;55052;52.056;5.296;2023-06-05T15:53:36;8.65;;;4.68;;
68234;SDS011;55052;52.056;5.296;2023-06-05T15:56:21;7.72;;;4.25;;
68234;SDS011;55052;52.056;5.296;2023-06-05T15:58:50;6.72;;;4.57;;
68234;SDS011;55052;52.056;5.296;2023-06-05T16:01:17;6.03;;;4.20;;